createdAt,value
2018-12-02T00:03:00.000Z,98977
2018-12-02T00:08:00.000Z,98960
2018-12-02T00:13:00.000Z,98966
2018-12-02T00:19:00.000Z,98952
2018-12-02T00:24:00.000Z,98939
2018-12-02T00:29:00.000Z,98947
2018-12-02T00:34:00.000Z,98937
2018-12-02T00:39:00.000Z,98944
2018-12-02T00:44:00.000Z,98946
2018-12-02T00:49:00.000Z,98953
2018-12-02T00:54:00.000Z,98954
2018-12-02T00:59:00.000Z,98941
2018-12-02T01:04:00.000Z,98947
2018-12-02T01:09:00.000Z,98951
2018-12-02T01:14:00.000Z,98949
2018-12-02T01:19:00.000Z,98940
2018-12-02T01:24:00.000Z,98934
2018-12-02T01:29:00.000Z,98935
2018-12-02T01:34:00.000Z,98920
2018-12-02T01:39:00.000Z,98913
2018-12-02T01:44:00.000Z,98911
2018-12-02T01:49:00.000Z,98898
2018-12-02T01:54:00.000Z,98910
2018-12-02T01:59:00.000Z,98912
2018-12-02T02:04:00.000Z,98902
2018-12-02T02:09:00.000Z,98901
2018-12-02T02:14:00.000Z,98891
2018-12-02T02:19:00.000Z,98881
2018-12-02T02:24:00.000Z,98884
2018-12-02T02:29:00.000Z,98872
2018-12-02T02:34:00.000Z,98870
2018-12-02T02:39:00.000Z,98870
2018-12-02T02:44:00.000Z,98865
2018-12-02T02:49:00.000Z,98856
2018-12-02T02:54:00.000Z,98856
2018-12-02T02:59:00.000Z,98842
2018-12-02T03:04:00.000Z,98824
2018-12-02T03:09:00.000Z,98841
2018-12-02T03:14:00.000Z,98846
2018-12-02T03:19:00.000Z,98837
2018-12-02T03:24:00.000Z,98826
2018-12-02T03:29:00.000Z,98824
2018-12-02T03:34:00.000Z,98844
2018-12-02T03:39:00.000Z,98832
2018-12-02T03:44:00.000Z,98838
2018-12-02T03:49:00.000Z,98832
2018-12-02T03:54:00.000Z,98826
2018-12-02T03:59:00.000Z,98822
2018-12-02T04:04:00.000Z,98815
2018-12-02T04:09:00.000Z,98821
2018-12-02T04:14:00.000Z,98804
2018-12-02T04:19:00.000Z,98812
2018-12-02T04:24:00.000Z,98788
2018-12-02T04:29:00.000Z,98774
2018-12-02T04:34:00.000Z,98781
2018-12-02T04:39:00.000Z,98787
2018-12-02T04:44:00.000Z,98794
2018-12-02T04:49:00.000Z,98806
2018-12-02T04:54:00.000Z,98803
2018-12-02T04:59:00.000Z,98784
2018-12-02T05:04:00.000Z,98787
2018-12-02T05:09:00.000Z,98783
2018-12-02T05:14:00.000Z,98765
2018-12-02T05:19:00.000Z,98769
2018-12-02T05:24:00.000Z,98775
2018-12-02T05:29:00.000Z,98759
2018-12-02T05:34:00.000Z,98748
2018-12-02T05:39:00.000Z,98737
2018-12-02T05:44:00.000Z,98733
2018-12-02T05:49:00.000Z,98729
2018-12-02T05:54:00.000Z,98722
2018-12-02T05:59:00.000Z,98719
2018-12-02T06:04:00.000Z,98716
2018-12-02T06:09:00.000Z,98703
2018-12-02T06:14:00.000Z,98707
2018-12-02T06:19:00.000Z,98711
2018-12-02T06:25:00.000Z,98712
2018-12-02T06:30:00.000Z,98700
2018-12-02T06:35:00.000Z,98690
2018-12-02T06:40:00.000Z,98704
2018-12-02T06:45:00.000Z,98702
2018-12-02T06:50:00.000Z,98689
2018-12-02T06:55:00.000Z,98693
2018-12-02T07:00:00.000Z,98690
2018-12-02T07:05:00.000Z,98682
2018-12-02T07:10:00.000Z,98696
2018-12-02T07:15:00.000Z,98707
2018-12-02T07:20:00.000Z,98696
2018-12-02T07:25:00.000Z,98690
2018-12-02T07:30:00.000Z,98682
2018-12-02T07:35:00.000Z,98673
2018-12-02T07:40:00.000Z,98676
2018-12-02T07:45:00.000Z,98673
2018-12-02T07:50:00.000Z,98674
2018-12-02T07:55:00.000Z,98683
2018-12-02T08:00:00.000Z,98690
2018-12-02T08:05:00.000Z,98665
2018-12-02T08:10:00.000Z,98666
2018-12-02T08:15:00.000Z,98676
2018-12-02T08:20:00.000Z,98680
2018-12-02T08:25:00.000Z,98674
2018-12-02T08:30:00.000Z,98685
2018-12-02T08:35:00.000Z,98673
2018-12-02T08:40:00.000Z,98676
2018-12-02T08:45:00.000Z,98676
2018-12-02T08:50:00.000Z,98665
2018-12-02T08:55:00.000Z,98665
2018-12-02T09:00:00.000Z,98660
2018-12-02T09:05:00.000Z,98675
2018-12-02T09:10:00.000Z,98683
2018-12-02T09:15:00.000Z,98668
2018-12-02T09:20:00.000Z,98674
2018-12-02T09:25:00.000Z,98681
2018-12-02T09:30:00.000Z,98670
2018-12-02T09:35:00.000Z,98658
2018-12-02T09:40:00.000Z,98640
2018-12-02T09:45:00.000Z,98639
2018-12-02T09:50:00.000Z,98629
2018-12-02T09:55:00.000Z,98624
2018-12-02T10:00:00.000Z,98598
2018-12-02T10:05:00.000Z,98604
2018-12-02T10:10:00.000Z,98602
2018-12-02T10:15:00.000Z,98596
2018-12-02T10:20:00.000Z,98576
2018-12-02T10:25:00.000Z,98580
2018-12-02T10:30:00.000Z,98579
2018-12-02T10:35:00.000Z,98565
2018-12-02T10:40:00.000Z,98554
2018-12-02T10:45:00.000Z,98548
2018-12-02T10:50:00.000Z,98545
2018-12-02T10:55:00.000Z,98537
2018-12-02T11:00:00.000Z,98539
2018-12-02T11:05:00.000Z,98534
2018-12-02T11:10:00.000Z,98533
2018-12-02T11:15:00.000Z,98526
2018-12-02T11:21:00.000Z,98504
2018-12-02T11:26:00.000Z,98493
2018-12-02T11:31:00.000Z,98508
2018-12-02T11:36:00.000Z,98501
2018-12-02T11:41:00.000Z,98481
2018-12-02T11:46:00.000Z,98466
2018-12-02T11:51:00.000Z,98461
2018-12-02T11:56:00.000Z,98456
2018-12-02T12:01:00.000Z,98456
2018-12-02T12:06:00.000Z,98440
2018-12-02T12:11:00.000Z,98436
2018-12-02T12:16:00.000Z,98428
2018-12-02T12:21:00.000Z,98433
2018-12-02T12:26:00.000Z,98441
2018-12-02T12:31:00.000Z,98443
2018-12-02T12:36:00.000Z,98432
2018-12-02T12:41:00.000Z,98405
2018-12-02T12:46:00.000Z,98407
2018-12-02T12:51:00.000Z,98413
2018-12-02T12:56:00.000Z,98398
2018-12-02T13:01:00.000Z,98366
2018-12-02T13:06:00.000Z,98317
2018-12-02T13:11:00.000Z,98324
2018-12-02T13:16:00.000Z,98355
2018-12-02T13:21:00.000Z,98345
2018-12-02T13:26:00.000Z,98370
2018-12-02T13:31:00.000Z,98361
2018-12-02T13:36:00.000Z,98373
2018-12-02T13:41:00.000Z,98364
2018-12-02T13:46:00.000Z,98349
2018-12-02T13:51:00.000Z,98347
2018-12-02T13:56:00.000Z,98357
2018-12-02T14:01:00.000Z,98335
2018-12-02T14:06:00.000Z,98345
2018-12-02T14:11:00.000Z,98337
2018-12-02T14:16:00.000Z,98367
2018-12-02T14:21:00.000Z,98382
2018-12-02T14:26:00.000Z,98395
2018-12-02T14:31:00.000Z,98397
2018-12-02T14:36:00.000Z,98390
2018-12-02T14:41:00.000Z,98386
2018-12-02T14:46:00.000Z,98369
2018-12-02T14:51:00.000Z,98370
2018-12-02T14:56:00.000Z,98325
2018-12-02T15:01:00.000Z,98276
2018-12-02T15:06:00.000Z,98272
2018-12-02T15:11:00.000Z,98250
2018-12-02T15:16:00.000Z,98242
2018-12-02T15:21:00.000Z,98262
2018-12-02T15:26:00.000Z,98260
2018-12-02T15:31:00.000Z,98271
2018-12-02T15:36:00.000Z,98241
2018-12-02T15:41:00.000Z,98232
2018-12-02T15:46:00.000Z,98273
2018-12-02T15:51:00.000Z,98298
2018-12-02T15:56:00.000Z,98298
2018-12-02T16:01:00.000Z,98333
2018-12-02T16:06:00.000Z,98349
2018-12-02T16:11:00.000Z,98357
2018-12-02T16:16:00.000Z,98344
2018-12-02T16:21:00.000Z,98322
2018-12-02T16:26:00.000Z,98333
2018-12-02T16:31:00.000Z,98314
2018-12-02T16:36:00.000Z,98299
2018-12-02T16:41:00.000Z,98268
2018-12-02T16:46:00.000Z,98312
2018-12-02T16:51:00.000Z,98358
2018-12-02T16:56:00.000Z,98361
2018-12-02T17:01:00.000Z,98341
2018-12-02T17:06:00.000Z,98349
2018-12-02T17:11:00.000Z,98344
2018-12-02T17:16:00.000Z,98344
2018-12-02T17:21:00.000Z,98333
2018-12-02T17:26:00.000Z,98333
2018-12-02T17:32:00.000Z,98323
2018-12-02T17:37:00.000Z,98315
2018-12-02T17:42:00.000Z,98326
2018-12-02T17:47:00.000Z,98315
2018-12-02T17:52:00.000Z,98289
2018-12-02T17:57:00.000Z,98292
2018-12-02T18:02:00.000Z,98293
2018-12-02T18:07:00.000Z,98294
2018-12-02T18:12:00.000Z,98281
2018-12-02T18:17:00.000Z,98290
2018-12-02T18:22:00.000Z,98271
2018-12-02T18:27:00.000Z,98280
2018-12-02T18:32:00.000Z,98289
2018-12-02T18:37:00.000Z,98284
2018-12-02T18:42:00.000Z,98290
2018-12-02T18:47:00.000Z,98269
2018-12-02T18:52:00.000Z,98273
2018-12-02T18:57:00.000Z,98271
2018-12-02T19:02:00.000Z,98262
2018-12-02T19:07:00.000Z,98258
2018-12-02T19:12:00.000Z,98261
2018-12-02T19:17:00.000Z,98261
2018-12-02T19:22:00.000Z,98266
2018-12-02T19:27:00.000Z,98259
2018-12-02T19:32:00.000Z,98267
2018-12-02T19:37:00.000Z,98267
2018-12-02T19:42:00.000Z,98267
2018-12-02T19:47:00.000Z,98273
2018-12-02T19:52:00.000Z,98277
2018-12-02T19:57:00.000Z,98267
2018-12-02T20:02:00.000Z,98264
2018-12-02T20:07:00.000Z,98264
2018-12-02T20:12:00.000Z,98253
2018-12-02T20:17:00.000Z,98262
2018-12-02T20:22:00.000Z,98247
2018-12-02T20:27:00.000Z,98249
2018-12-02T20:32:00.000Z,98246
2018-12-02T20:37:00.000Z,98259
2018-12-02T20:42:00.000Z,98257
2018-12-02T20:47:00.000Z,98260
2018-12-02T20:52:00.000Z,98261
2018-12-02T20:57:00.000Z,98253
2018-12-02T21:02:00.000Z,98243
2018-12-02T21:07:00.000Z,98239
2018-12-02T21:12:00.000Z,98220
2018-12-02T21:17:00.000Z,98227
2018-12-02T21:22:00.000Z,98243
2018-12-02T21:27:00.000Z,98236
2018-12-02T21:32:00.000Z,98222
2018-12-02T21:37:00.000Z,98224
2018-12-02T21:42:00.000Z,98221
2018-12-02T21:47:00.000Z,98208
2018-12-02T21:52:00.000Z,98222
2018-12-02T21:57:00.000Z,98212
2018-12-02T22:02:00.000Z,98205
2018-12-02T22:07:00.000Z,98224
2018-12-02T22:12:00.000Z,98200
2018-12-02T22:17:00.000Z,98206
2018-12-02T22:22:00.000Z,98217
2018-12-02T22:27:00.000Z,98223
2018-12-02T22:32:00.000Z,98205
2018-12-02T22:37:00.000Z,98219
2018-12-02T22:42:00.000Z,98205
2018-12-02T22:47:00.000Z,98217
2018-12-02T22:52:00.000Z,98210
2018-12-02T22:57:00.000Z,98210
2018-12-02T23:02:00.000Z,98191
2018-12-02T23:07:00.000Z,98178
2018-12-02T23:12:00.000Z,98197
2018-12-02T23:17:00.000Z,98178
2018-12-02T23:22:00.000Z,98174
2018-12-02T23:27:00.000Z,98172
2018-12-02T23:32:00.000Z,98174
2018-12-02T23:37:00.000Z,98160
2018-12-02T23:42:00.000Z,98162
2018-12-02T23:47:00.000Z,98175
2018-12-02T23:53:00.000Z,98164
2018-12-02T23:58:00.000Z,98151
